BEL2A EDLW-EDDH
Flight info
| Callsign | BEL2A |
|---|---|
| Flight time | 0h 31m |
| Altitude | 23000 |
| Route | OSN2U OSN DCT EXPUH M170 BASUM/N0428F240 Y850 PIXUR/N0422F230 Y850 MUBZI M105 RIBSO RIBSO3S |
| Aircraft | A320/M-SDE3FGHIRWY/LB1 |
Departure
| Time | 2026-04-25 13:26 |
|---|---|
| Airport | Dortmund Airport (EDLW) |
Arrival
| Time | 2026-04-25 13:57 |
|---|---|
| Airport | Hamburg Helmut Schmidt Airport (EDDH) |
| Time | Latitude | Longitude | Altitude | Speed | Heading |
|---|---|---|---|---|---|
| 2026-04-25 13:10 | 51.51579 | 7.61308 | 425 ft | 0 kts | 149° |
| 2026-04-25 13:20 | 51.51581 | 7.61307 | 424 ft | 3 kts | 149° |
| 2026-04-25 13:20 | 51.51597 | 7.61291 | 427 ft | 3 kts | 149° |
| 2026-04-25 13:20 | 51.51613 | 7.61277 | 419 ft | 3 kts | 144° |
| 2026-04-25 13:21 | 51.51627 | 7.61258 | 419 ft | 3 kts | 136° |
| 2026-04-25 13:21 | 51.51640 | 7.61238 | 420 ft | 3 kts | 116° |
| 2026-04-25 13:21 | 51.51644 | 7.61222 | 416 ft | 0 kts | 71° |
| 2026-04-25 13:23 | 51.51689 | 7.61358 | 419 ft | 21 kts | 60° |
| 2026-04-25 13:23 | 51.51769 | 7.61581 | 416 ft | 25 kts | 60° |
| 2026-04-25 13:23 | 51.51862 | 7.61841 | 409 ft | 28 kts | 60° |
| 2026-04-25 13:23 | 51.51948 | 7.62096 | 414 ft | 23 kts | 62° |
| 2026-04-25 13:24 | 51.52025 | 7.62315 | 409 ft | 22 kts | 64° |
| 2026-04-25 13:24 | 51.52071 | 7.62449 | 409 ft | 7 kts | 60° |
| 2026-04-25 13:24 | 51.52101 | 7.62531 | 406 ft | 13 kts | 59° |
| 2026-04-25 13:24 | 51.52175 | 7.62736 | 402 ft | 27 kts | 55° |
| 2026-04-25 13:25 | 51.52326 | 7.62689 | 402 ft | 22 kts | 308° |
| 2026-04-25 13:25 | 51.52304 | 7.62558 | 404 ft | 14 kts | 237° |
| 2026-04-25 13:25 | 51.52139 | 7.62077 | 412 ft | 86 kts | 240° |
| 2026-04-25 13:25 | 51.51749 | 7.60948 | 424 ft | 142 kts | 247° |
| 2026-04-25 13:26 | 51.51280 | 7.59570 | 943 ft | 144 kts | 246° |
| 2026-04-25 13:26 | 51.50794 | 7.58151 | 1699 ft | 143 kts | 244° |
| 2026-04-25 13:26 | 51.50317 | 7.56793 | 2319 ft | 147 kts | 243° |
| 2026-04-25 13:26 | 51.49780 | 7.55276 | 2543 ft | 170 kts | 244° |
| 2026-04-25 13:27 | 51.49152 | 7.53506 | 2744 ft | 195 kts | 245° |
| 2026-04-25 13:27 | 51.48430 | 7.51486 | 3067 ft | 222 kts | 243° |
| 2026-04-25 13:27 | 51.47653 | 7.49206 | 3475 ft | 244 kts | 252° |
| 2026-04-25 13:27 | 51.47557 | 7.46513 | 4146 ft | 249 kts | 286° |
| 2026-04-25 13:28 | 51.48283 | 7.43972 | 4788 ft | 254 kts | 310° |
| 2026-04-25 13:28 | 51.49008 | 7.42840 | 4921 ft | 254 kts | 322° |
| 2026-04-25 13:28 | 51.51071 | 7.41039 | 5009 ft | 254 kts | 334° |
| 2026-04-25 13:28 | 51.52671 | 7.39806 | 5020 ft | 253 kts | 333° |
| 2026-04-25 13:29 | 51.54346 | 7.38958 | 5017 ft | 254 kts | 351° |
| 2026-04-25 13:29 | 51.56122 | 7.39095 | 5016 ft | 259 kts | 11° |
| 2026-04-25 13:29 | 51.57780 | 7.40282 | 5021 ft | 265 kts | 32° |
| 2026-04-25 13:30 | 51.60112 | 7.43479 | 5110 ft | 268 kts | 37° |
| 2026-04-25 13:30 | 51.60236 | 7.43654 | 5120 ft | 269 kts | 39° |
| 2026-04-25 13:30 | 51.60282 | 7.43721 | 5122 ft | 268 kts | 40° |
| 2026-04-25 13:31 | 51.62236 | 7.46426 | 5336 ft | 219 kts | 30° |
| 2026-04-25 13:31 | 51.63488 | 7.47879 | 5266 ft | 246 kts | 30° |
| 2026-04-25 13:31 | 51.64845 | 7.49616 | 5493 ft | 271 kts | 38° |
| 2026-04-25 13:31 | 51.66001 | 7.51349 | 5870 ft | 267 kts | 47° |
| 2026-04-25 13:32 | 51.66968 | 7.53423 | 5857 ft | 252 kts | 48° |
| 2026-04-25 13:32 | 51.68103 | 7.55409 | 6068 ft | 222 kts | 36° |
| 2026-04-25 13:32 | 51.69272 | 7.56966 | 6152 ft | 221 kts | 33° |
| 2026-04-25 13:32 | 51.70556 | 7.58576 | 6443 ft | 246 kts | 33° |
| 2026-04-25 13:33 | 51.71965 | 7.60364 | 6828 ft | 269 kts | 34° |
| 2026-04-25 13:33 | 51.73445 | 7.62307 | 7513 ft | 278 kts | 36° |
| 2026-04-25 13:33 | 51.74923 | 7.64309 | 8300 ft | 282 kts | 36° |
| 2026-04-25 13:33 | 51.75899 | 7.65655 | 8850 ft | 284 kts | 37° |
| 2026-04-25 13:34 | 51.77923 | 7.68481 | 9969 ft | 289 kts | 37° |
| 2026-04-25 13:34 | 51.79460 | 7.70633 | 10556 ft | 301 kts | 37° |
| 2026-04-25 13:34 | 51.81075 | 7.72900 | 10817 ft | 323 kts | 37° |
| 2026-04-25 13:34 | 51.82835 | 7.75373 | 11010 ft | 347 kts | 37° |
| 2026-04-25 13:35 | 51.84715 | 7.78019 | 11141 ft | 369 kts | 37° |
| 2026-04-25 13:35 | 51.86700 | 7.80827 | 11365 ft | 386 kts | 38° |
| 2026-04-25 13:35 | 51.88744 | 7.83733 | 11747 ft | 398 kts | 38° |
| 2026-04-25 13:35 | 51.90848 | 7.86730 | 12199 ft | 406 kts | 38° |
| 2026-04-25 13:36 | 51.92980 | 7.89777 | 12781 ft | 410 kts | 38° |
| 2026-04-25 13:36 | 51.95110 | 7.92823 | 13615 ft | 407 kts | 37° |
| 2026-04-25 13:36 | 51.97222 | 7.95843 | 14480 ft | 403 kts | 37° |
| 2026-04-25 13:36 | 51.99295 | 7.98804 | 15000 ft | 409 kts | 37° |
| 2026-04-25 13:37 | 52.01475 | 8.01906 | 15171 ft | 423 kts | 37° |
| 2026-04-25 13:37 | 52.03703 | 8.05078 | 15553 ft | 429 kts | 37° |
| 2026-04-25 13:37 | 52.05950 | 8.08286 | 15997 ft | 433 kts | 37° |
| 2026-04-25 13:37 | 52.08224 | 8.11537 | 16461 ft | 436 kts | 37° |
| 2026-04-25 13:38 | 52.10503 | 8.14803 | 16904 ft | 439 kts | 37° |
| 2026-04-25 13:38 | 52.12796 | 8.18105 | 17343 ft | 442 kts | 37° |
| 2026-04-25 13:38 | 52.15099 | 8.21432 | 17766 ft | 444 kts | 38° |
| 2026-04-25 13:38 | 52.17418 | 8.24787 | 18188 ft | 447 kts | 38° |
| 2026-04-25 13:39 | 52.19765 | 8.28009 | 18556 ft | 447 kts | 32° |
| 2026-04-25 13:39 | 52.22408 | 8.30637 | 18912 ft | 444 kts | 24° |
| 2026-04-25 13:39 | 52.25146 | 8.32998 | 19272 ft | 446 kts | 23° |
| 2026-04-25 13:39 | 52.27889 | 8.35378 | 19609 ft | 448 kts | 23° |
| 2026-04-25 13:40 | 52.30645 | 8.37780 | 19954 ft | 449 kts | 23° |
| 2026-04-25 13:40 | 52.33411 | 8.40190 | 20271 ft | 451 kts | 23° |
| 2026-04-25 13:40 | 52.36183 | 8.42605 | 20586 ft | 453 kts | 23° |
| 2026-04-25 13:40 | 52.38964 | 8.45031 | 20886 ft | 454 kts | 24° |
| 2026-04-25 13:41 | 52.41758 | 8.47477 | 21209 ft | 456 kts | 23° |
| 2026-04-25 13:41 | 52.44555 | 8.49932 | 21492 ft | 458 kts | 23° |
| 2026-04-25 13:41 | 52.47368 | 8.52406 | 21788 ft | 459 kts | 23° |
| 2026-04-25 13:41 | 52.50175 | 8.54880 | 22351 ft | 452 kts | 23° |
| 2026-04-25 13:42 | 52.52885 | 8.57287 | 23590 ft | 433 kts | 23° |
| 2026-04-25 13:42 | 52.55443 | 8.59563 | 24558 ft | 408 kts | 22° |
| 2026-04-25 13:42 | 52.57914 | 8.61747 | 24856 ft | 411 kts | 22° |
| 2026-04-25 13:42 | 52.60459 | 8.63980 | 25042 ft | 419 kts | 22° |
| 2026-04-25 13:43 | 52.63061 | 8.66262 | 25099 ft | 429 kts | 22° |
| 2026-04-25 13:43 | 52.65723 | 8.68603 | 25108 ft | 439 kts | 22° |
| 2026-04-25 13:43 | 52.68443 | 8.71006 | 25104 ft | 448 kts | 22° |
| 2026-04-25 13:43 | 52.71213 | 8.73468 | 25108 ft | 457 kts | 22° |
| 2026-04-25 13:44 | 52.74035 | 8.75984 | 25105 ft | 463 kts | 22° |
| 2026-04-25 13:44 | 52.76959 | 8.78205 | 25104 ft | 461 kts | 14° |
| 2026-04-25 13:44 | 52.80020 | 8.79650 | 25105 ft | 456 kts | 6° |
| 2026-04-25 13:44 | 52.83138 | 8.80550 | 25107 ft | 455 kts | 4° |
| 2026-04-25 13:45 | 52.86219 | 8.81419 | 25106 ft | 455 kts | 4° |
| 2026-04-25 13:45 | 52.89210 | 8.82269 | 25108 ft | 455 kts | 4° |
| 2026-04-25 13:45 | 52.96256 | 8.84293 | 25088 ft | 455 kts | 4° |
| 2026-04-25 13:45 | 53.08712 | 8.87880 | 24868 ft | 457 kts | 4° |
| 2026-04-25 13:46 | 53.20981 | 8.91435 | 24969 ft | 456 kts | 4° |
| 2026-04-25 13:46 | 53.33372 | 8.95034 | 24884 ft | 456 kts | 4° |
| 2026-04-25 13:46 | 53.45693 | 8.98684 | 24907 ft | 456 kts | 5° |
| 2026-04-25 13:46 | 53.57574 | 9.05447 | 20700 ft | 467 kts | 33° |
| 2026-04-25 13:47 | 53.67350 | 9.17410 | 16280 ft | 417 kts | 27° |
| 2026-04-25 13:47 | 53.76442 | 9.28156 | 12048 ft | 390 kts | 28° |
| 2026-04-25 13:47 | 53.81530 | 9.41595 | 9563 ft | 441 kts | 78° |
| 2026-04-25 13:47 | 53.81755 | 9.46595 | 8416 ft | 416 kts | 83° |
| 2026-04-25 13:48 | 53.81629 | 9.51432 | 7734 ft | 404 kts | 98° |
| 2026-04-25 13:48 | 53.80826 | 9.55778 | 7596 ft | 372 kts | 114° |
| 2026-04-25 13:48 | 53.79554 | 9.59374 | 7466 ft | 343 kts | 130° |
| 2026-04-25 13:48 | 53.77935 | 9.62133 | 7340 ft | 323 kts | 146° |
| 2026-04-25 13:49 | 53.76109 | 9.64281 | 7218 ft | 319 kts | 150° |
| 2026-04-25 13:49 | 53.74366 | 9.66594 | 7095 ft | 320 kts | 139° |
| 2026-04-25 13:49 | 53.68742 | 9.72738 | 6672 ft | 313 kts | 154° |
| 2026-04-25 13:49 | 53.61252 | 9.80136 | 6190 ft | 311 kts | 154° |
| 2026-04-25 13:50 | 53.53899 | 9.87349 | 4888 ft | 300 kts | 154° |
| 2026-04-25 13:50 | 53.49939 | 9.91484 | 4072 ft | 293 kts | 148° |
| 2026-04-25 13:50 | 53.48294 | 9.93432 | 3736 ft | 289 kts | 148° |
| 2026-04-25 13:50 | 53.46696 | 9.95489 | 3349 ft | 288 kts | 136° |
| 2026-04-25 13:51 | 53.45597 | 9.98236 | 3134 ft | 280 kts | 111° |
| 2026-04-25 13:51 | 53.45129 | 10.01305 | 3026 ft | 265 kts | 99° |
| 2026-04-25 13:51 | 53.44847 | 10.04211 | 3030 ft | 248 kts | 88° |
| 2026-04-25 13:51 | 53.45122 | 10.06901 | 3024 ft | 225 kts | 62° |
| 2026-04-25 13:52 | 53.45914 | 10.08981 | 3029 ft | 210 kts | 38° |
| 2026-04-25 13:52 | 53.46977 | 10.10330 | 3049 ft | 175 kts | 18° |
| 2026-04-25 13:52 | 53.48026 | 10.10952 | 3030 ft | 149 kts | 1° |
| 2026-04-25 13:52 | 53.49012 | 10.11060 | 3025 ft | 137 kts | 347° |
| 2026-04-25 13:53 | 53.49927 | 10.10782 | 3026 ft | 132 kts | 335° |
| 2026-04-25 13:53 | 53.50758 | 10.10172 | 3004 ft | 133 kts | 326° |
| 2026-04-25 13:53 | 53.51580 | 10.09464 | 2754 ft | 133 kts | 326° |
| 2026-04-25 13:53 | 53.52389 | 10.08773 | 2545 ft | 132 kts | 326° |
| 2026-04-25 13:54 | 53.53228 | 10.08049 | 2347 ft | 145 kts | 326° |
| 2026-04-25 13:54 | 53.54154 | 10.07245 | 2120 ft | 151 kts | 327° |
| 2026-04-25 13:54 | 53.55093 | 10.06440 | 1903 ft | 152 kts | 327° |
| 2026-04-25 13:54 | 53.56018 | 10.05652 | 1677 ft | 143 kts | 327° |
| 2026-04-25 13:55 | 53.56876 | 10.04922 | 1476 ft | 134 kts | 327° |
| 2026-04-25 13:55 | 53.57688 | 10.04226 | 1312 ft | 129 kts | 325° |
| 2026-04-25 13:55 | 53.58476 | 10.03548 | 1119 ft | 128 kts | 326° |
| 2026-04-25 13:55 | 53.59268 | 10.02866 | 928 ft | 131 kts | 326° |
| 2026-04-25 13:56 | 53.60085 | 10.02161 | 739 ft | 130 kts | 324° |
| 2026-04-25 13:56 | 53.60880 | 10.01473 | 553 ft | 131 kts | 328° |
| 2026-04-25 13:56 | 53.61681 | 10.00779 | 373 ft | 129 kts | 324° |
| 2026-04-25 13:56 | 53.62486 | 10.00085 | 202 ft | 129 kts | 323° |
| 2026-04-25 13:57 | 53.63218 | 9.99462 | 49 ft | 74 kts | 334° |
| 2026-04-25 13:57 | 53.63330 | 9.99371 | 51 ft | 0 kts | 328° |
| 2026-04-25 13:57 | 53.63334 | 9.99376 | 51 ft | 0 kts | 21° |
| 2026-04-25 13:57 | 53.63336 | 9.99385 | 51 ft | 1 kts | 58° |
| 2026-04-25 13:58 | 53.63345 | 9.99417 | 49 ft | 7 kts | 64° |
| 2026-04-25 13:58 | 53.63382 | 9.99520 | 51 ft | 11 kts | 53° |
| 2026-04-25 13:58 | 53.63432 | 9.99622 | 49 ft | 13 kts | 50° |
| 2026-04-25 13:58 | 53.63492 | 9.99741 | 50 ft | 14 kts | 50° |
| 2026-04-25 13:59 | 53.63534 | 9.99863 | 50 ft | 11 kts | 93° |
| 2026-04-25 13:59 | 53.63496 | 9.99967 | 50 ft | 10 kts | 127° |
| 2026-04-25 13:59 | 53.63457 | 10.00058 | 50 ft | 9 kts | 124° |
| 2026-04-25 13:59 | 53.63419 | 10.00149 | 48 ft | 10 kts | 126° |
| 2026-04-25 14:00 | 53.63374 | 10.00225 | 51 ft | 8 kts | 156° |
| 2026-04-25 14:00 | 53.63320 | 10.00235 | 51 ft | 7 kts | 176° |
| 2026-04-25 14:00 | 53.63275 | 10.00240 | 51 ft | 6 kts | 175° |
| 2026-04-25 14:00 | 53.63234 | 10.00245 | 51 ft | 8 kts | 176° |
| 2026-04-25 14:01 | 53.63159 | 10.00253 | 51 ft | 13 kts | 176° |
| 2026-04-25 14:01 | 53.63086 | 10.00294 | 51 ft | 9 kts | 123° |
| 2026-04-25 14:01 | 53.63078 | 10.00348 | 51 ft | 5 kts | 99° |
| 2026-04-25 14:01 | 53.63075 | 10.00373 | 51 ft | 1 kts | 99° |
| 2026-04-25 14:02 | 53.63075 | 10.00374 | 51 ft | 0 kts | 99° |